ADDS METAR Data INFO
IDs: Format: Raw Decoded Include TAF

Data at: 1740 UTC 21 Apr 2018

KMQY 211656Z 16005KT 10SM CLR 21/03 A3031 RMK AO2 SLP209 T02110033